POGODA: Poland

Lotnisko: Warszawa-Okecie

METAR KOD: EPWA


METAR: EPWA 230900Z 06013KT 9999 BKN014 03/01 Q1019 NOSIG


BLOK
Pogoda METAR
230900Z
Dzien: 23, Godzina: 09:00 UTC.
06013KT
Wiatr z kierunku 060, o predkosci 24 km/h
9999
Widzialnosc pozioma ponad 10 km.
BKN014
5/8 - 7/8 pokrycia nieba, chmurami o podstawie: 420 metrow
03/01
Temperatura: powietrze 3°C, punkt rosy 1°C . Wilgotnosc wzgledna 33 %
Q1019
Cisnienie: 1019 hPa
NOSIG
Pogoda bedzie bez zmian

Pogoda na innym lotnisku

Pogoda Gdansk-Rebiechowo WEATHER Poland  
Pogoda Katowice WEATHER Poland  
Pogoda Krakow WEATHER Poland  
Pogoda Poznan WEATHER Poland  
Pogoda Rzeszow-Jasionka WEATHER Poland  
Pogoda Szczecin WEATHER Poland  
Pogoda Warszawa-Okecie WEATHER Poland  
Pogoda Wroclaw Ii WEATHER Poland  

Pogoda w inny kraju

Strona startowa

(C) by GREGOR 2007
Ogłoszenia Towarzyskie